Terminal Aerodrome Forecast
Issued by NWS Springfield, MO

Home | Current Version | Previous Version | Text Only | Print | Product List | Glossary On
Versions: 1 2 3 4 5 6 7 8 9 10 11 12 13 14 15 16 17 18 19 20 21 22
000
FTUS43 KSGF 301100
TAFSGF
TAF
KSGF 301120Z 3012/3112 VRB03KT P6SM BKN060
     FM301400 20004KT P6SM BKN050 OVC060
      TEMPO 3014/3018 -SHRA OVC050
     FM301800 VRB05KT P6SM OVC050=

USA.gov is the U.S. government's official web portal to all federal, state and local government web resources and services.